createdAt,value
2019-02-08T00:02:10.134Z,17.73
2019-02-08T00:04:40.396Z,19.17
2019-02-08T00:07:11.255Z,19.27
2019-02-08T00:09:41.655Z,18.23
2019-02-08T00:12:11.991Z,13.25
2019-02-08T00:14:42.311Z,19.50
2019-02-08T00:17:12.743Z,16.73
2019-02-08T00:19:43.370Z,17.37
2019-02-08T00:22:13.981Z,17.47
2019-02-08T00:24:44.083Z,18.73
2019-02-08T00:27:14.415Z,15.13
2019-02-08T00:29:44.754Z,18.63
2019-02-08T00:32:15.158Z,16.30
2019-02-08T00:34:45.594Z,14.17
2019-02-08T00:37:16.110Z,13.33
2019-02-08T00:39:46.383Z,16.07
2019-02-08T00:42:16.668Z,19.40
2019-02-08T00:44:47.004Z,13.00
2019-02-08T00:47:17.278Z,18.35
2019-02-08T00:49:47.605Z,11.60
2019-02-08T00:52:17.874Z,20.70
2019-02-08T00:54:50.270Z,18.37
2019-02-08T00:57:20.574Z,16.35
2019-02-08T00:59:50.992Z,22.07
2019-02-08T01:02:21.319Z,17.83
2019-02-08T01:04:51.924Z,24.70
2019-02-08T01:07:22.351Z,21.57
2019-02-08T01:09:52.770Z,21.13
2019-02-08T01:12:23.299Z,26.20
2019-02-08T01:14:53.690Z,11.53
2019-02-08T01:17:24.034Z,24.67
2019-02-08T01:19:54.518Z,24.97
2019-02-08T01:22:25.051Z,23.55
2019-02-08T01:24:55.550Z,17.67
2019-02-08T01:27:25.942Z,21.40
2019-02-08T01:29:56.123Z,26.67
2019-02-08T01:32:26.447Z,18.67
2019-02-08T01:34:56.758Z,20.10
2019-02-08T01:37:27.007Z,27.07
2019-02-08T01:39:57.303Z,21.17
2019-02-08T01:42:27.529Z,20.73
2019-02-08T01:44:57.710Z,16.80
2019-02-08T01:47:27.969Z,23.27
2019-02-08T01:49:58.161Z,21.57
2019-02-08T01:52:28.420Z,23.47
2019-02-08T01:54:58.676Z,25.80
2019-02-08T01:57:28.950Z,28.95
2019-02-08T01:59:59.117Z,23.43
2019-02-08T02:02:29.367Z,22.43
2019-02-08T02:04:59.683Z,22.10
2019-02-08T02:07:30.038Z,24.87
2019-02-08T02:10:00.408Z,27.20
2019-02-08T02:12:30.611Z,25.83
2019-02-08T02:15:01.129Z,22.60
2019-02-08T02:17:31.489Z,31.87
2019-02-08T02:20:06.381Z,26.45
2019-02-08T02:22:36.767Z,31.13
2019-02-08T02:25:08.656Z,25.73
2019-02-08T02:27:38.992Z,24.18
2019-02-08T02:30:12.599Z,28.97
2019-02-08T02:32:43.034Z,32.00
2019-02-08T02:35:13.974Z,37.50
2019-02-08T02:37:44.251Z,28.63
2019-02-08T02:40:15.014Z,24.70
2019-02-08T02:42:45.299Z,29.10
2019-02-08T02:45:27.748Z,33.10
2019-02-08T02:47:58.411Z,27.80
2019-02-08T02:50:28.851Z,36.80
2019-02-08T02:52:59.205Z,34.27
2019-02-08T02:55:30.326Z,27.50
2019-02-08T02:58:00.587Z,29.35
2019-02-08T03:00:35.717Z,27.47
2019-02-08T03:03:07.580Z,28.40
2019-02-08T03:05:38.039Z,32.00
2019-02-08T03:08:10.017Z,30.00
2019-02-08T03:10:40.644Z,35.00
2019-02-08T03:13:11.462Z,30.80
2019-02-08T03:15:42.068Z,31.83
2019-02-08T03:18:12.576Z,28.57
2019-02-08T03:20:43.058Z,31.43
2019-02-08T03:23:13.539Z,35.50
2019-02-08T03:25:44.304Z,28.87
2019-02-08T03:28:14.801Z,35.50
2019-02-08T03:30:56.559Z,34.90
2019-02-08T03:33:27.232Z,28.70
2019-02-08T03:35:57.801Z,26.97
2019-02-08T03:38:28.288Z,27.50
2019-02-08T03:40:58.715Z,24.33
2019-02-08T03:43:29.286Z,27.43
2019-02-08T03:45:59.771Z,23.33
2019-02-08T03:48:30.193Z,30.47
2019-02-08T03:51:00.644Z,24.67
2019-02-08T03:53:30.982Z,25.37
2019-02-08T03:56:01.130Z,21.53
2019-02-08T03:58:31.353Z,21.27
2019-02-08T04:01:06.328Z,24.73
2019-02-08T04:03:36.789Z,24.40
2019-02-08T04:06:07.499Z,25.83
2019-02-08T04:08:37.876Z,22.70
2019-02-08T04:11:08.197Z,26.37
2019-02-08T04:13:38.468Z,36.57
2019-02-08T04:16:09.028Z,24.10
2019-02-08T04:18:39.447Z,21.70
2019-02-08T04:21:09.737Z,28.60
2019-02-08T04:23:40.032Z,27.20
2019-02-08T04:26:12.585Z,24.80
2019-02-08T04:28:48.550Z,25.67
2019-02-08T04:31:18.842Z,22.35
2019-02-08T04:36:34.150Z,23.07
2019-02-08T04:39:06.703Z,27.40
2019-02-08T04:41:37.350Z,28.65
2019-02-08T04:44:08.943Z,20.43
2019-02-08T04:46:40.790Z,20.67
2019-02-08T04:49:12.911Z,24.33
2019-02-08T04:51:43.420Z,26.10
2019-02-08T04:54:15.650Z,24.17
2019-02-08T04:56:45.958Z,25.40
2019-02-08T04:59:18.118Z,30.90
2019-02-08T05:01:50.214Z,27.70
2019-02-08T05:04:20.677Z,28.93
2019-02-08T05:06:55.442Z,27.27
2019-02-08T05:09:25.919Z,21.47
2019-02-08T05:11:56.335Z,30.80
2019-02-08T05:14:26.739Z,25.70
2019-02-08T05:16:57.135Z,27.43
2019-02-08T05:19:27.497Z,26.93
2019-02-08T05:21:57.901Z,29.55
2019-02-08T05:24:28.341Z,24.97
2019-02-08T05:26:58.707Z,25.30
2019-02-08T05:29:30.434Z,23.80
2019-02-08T05:32:00.843Z,23.33
2019-02-08T05:34:31.193Z,25.80
2019-02-08T05:37:02.199Z,26.57
2019-02-08T05:39:35.184Z,27.13
2019-02-08T05:42:08.793Z,24.00
2019-02-08T05:44:42.029Z,30.17
2019-02-08T05:47:12.473Z,28.17
2019-02-08T05:49:45.091Z,26.00
2019-02-08T05:52:16.865Z,27.47
2019-02-08T05:54:54.263Z,28.50
2019-02-08T05:57:19.389Z,28.65
2019-02-08T05:59:51.234Z,26.50
2019-02-08T06:02:21.742Z,25.17
2019-02-08T06:04:52.779Z,26.12
2019-02-08T06:07:23.144Z,28.97
2019-02-08T06:10:00.239Z,23.50
2019-02-08T06:12:29.818Z,23.17
2019-02-08T06:15:02.690Z,26.67
2019-02-08T06:17:35.488Z,22.47
2019-02-08T06:20:09.609Z,26.77
2019-02-08T06:22:41.281Z,25.35
2019-02-08T06:25:11.901Z,25.80
2019-02-08T06:27:44.440Z,27.00
2019-02-08T06:30:18.932Z,26.13
2019-02-08T06:32:49.421Z,21.57
2019-02-08T06:35:25.061Z,25.90
2019-02-08T06:37:55.437Z,29.73
2019-02-08T06:40:26.658Z,25.97
2019-02-08T06:42:57.390Z,25.53
2019-02-08T06:45:28.133Z,19.83
2019-02-08T06:47:58.501Z,23.87
2019-02-08T06:50:28.888Z,25.87
2019-02-08T06:53:02.047Z,24.37
2019-02-08T06:55:38.609Z,22.27
2019-02-08T06:58:34.984Z,23.67
2019-02-08T07:01:15.864Z,22.00
2019-02-08T07:04:23.058Z,20.30
2019-02-08T07:07:11.060Z,24.80
2019-02-08T07:10:01.118Z,22.33
2019-02-08T07:12:53.279Z,23.57
2019-02-08T07:15:41.778Z,21.10
2019-02-08T07:18:27.713Z,21.13
2019-02-08T07:21:19.696Z,26.50
2019-02-08T07:24:06.499Z,22.50
2019-02-08T07:27:10.846Z,27.27
2019-02-08T07:30:11.787Z,23.07
2019-02-08T07:33:19.045Z,24.27
2019-02-08T07:36:06.832Z,23.07
2019-02-08T07:38:43.483Z,26.23
2019-02-08T07:41:35.211Z,19.07
2019-02-08T07:44:26.769Z,20.83
2019-02-08T07:47:23.097Z,23.50
2019-02-08T07:50:18.455Z,23.70
2019-02-08T07:52:59.653Z,28.53
2019-02-08T07:55:48.820Z,25.07
2019-02-08T07:58:31.550Z,28.00
2019-02-08T08:01:15.219Z,30.60
2019-02-08T08:04:16.606Z,29.00
2019-02-08T08:07:06.208Z,29.00
2019-02-08T08:09:55.895Z,27.83
2019-02-08T08:12:40.104Z,27.07
2019-02-08T08:18:27.241Z,26.87
2019-02-08T08:21:23.075Z,27.13
2019-02-08T08:24:12.589Z,32.57
2019-02-08T08:26:59.583Z,30.70
2019-02-08T08:29:47.646Z,25.77
2019-02-08T08:32:29.728Z,26.43
2019-02-08T08:35:42.008Z,26.87
2019-02-08T08:39:15.132Z,25.73
2019-02-08T08:42:49.156Z,22.70
2019-02-08T08:50:16.345Z,21.15
2019-02-08T08:53:57.445Z,26.60
2019-02-08T08:57:29.285Z,22.67
2019-02-08T09:01:01.244Z,26.27
2019-02-08T09:04:49.466Z,27.73
2019-02-08T09:08:33.015Z,26.13
2019-02-08T09:12:37.227Z,28.60
2019-02-08T09:15:51.842Z,23.93
2019-02-08T09:19:12.469Z,21.20
2019-02-08T09:22:30.444Z,25.37
2019-02-08T09:26:17.855Z,28.30
2019-02-08T09:30:08.395Z,25.47
2019-02-08T09:33:38.153Z,26.97
2019-02-08T09:37:11.271Z,23.53
2019-02-08T09:40:51.395Z,22.70
2019-02-08T09:44:28.409Z,24.60
2019-02-08T09:47:40.492Z,21.17
2019-02-08T09:51:12.737Z,23.37
2019-02-08T09:54:21.461Z,20.37
2019-02-08T09:57:37.047Z,25.53
2019-02-08T10:00:56.013Z,21.57
2019-02-08T10:04:02.447Z,20.03
2019-02-08T10:07:29.915Z,19.30
2019-02-08T10:11:21.450Z,18.27
2019-02-08T10:15:06.219Z,26.45
2019-02-08T10:18:49.047Z,24.23
2019-02-08T10:22:10.091Z,24.00
2019-02-08T10:25:19.317Z,20.47
2019-02-08T10:29:16.659Z,23.53
2019-02-08T10:32:45.980Z,22.80
2019-02-08T10:36:04.440Z,21.02
2019-02-08T10:39:27.154Z,23.65
2019-02-08T10:43:05.760Z,21.20
2019-02-08T10:46:25.512Z,24.20
2019-02-08T10:49:46.394Z,19.80
2019-02-08T10:53:07.981Z,20.08
2019-02-08T10:56:38.075Z,23.90
2019-02-08T11:00:34.207Z,22.00
2019-02-08T11:04:14.902Z,20.10
2019-02-08T11:07:33.834Z,19.73
2019-02-08T11:10:58.235Z,20.00
2019-02-08T11:14:19.707Z,20.10
2019-02-08T11:17:57.047Z,20.83
2019-02-08T11:20:27.378Z,18.33
2019-02-08T11:23:04.458Z,25.80
2019-02-08T11:25:33.028Z,20.83
2019-02-08T11:28:03.502Z,23.63
2019-02-08T11:30:37.976Z,19.17
2019-02-08T11:33:08.424Z,14.17
2019-02-08T11:35:39.142Z,16.97
2019-02-08T11:38:09.580Z,16.87
2019-02-08T11:40:40.010Z,17.23
2019-02-08T11:43:10.545Z,15.17
2019-02-08T11:45:41.051Z,13.80
2019-02-08T11:48:12.805Z,17.17
2019-02-08T11:50:43.205Z,16.82
2019-02-08T11:53:15.711Z,16.62
2019-02-08T11:55:46.308Z,16.50
2019-02-08T11:58:16.806Z,13.45
2019-02-08T12:00:51.747Z,19.47
2019-02-08T12:03:25.089Z,16.67
2019-02-08T12:05:57.819Z,13.33
2019-02-08T12:08:30.625Z,14.07
2019-02-08T12:11:00.951Z,12.53
2019-02-08T12:13:31.335Z,12.20
2019-02-08T12:16:01.838Z,15.77
2019-02-08T12:18:34.589Z,11.30
2019-02-08T12:21:04.948Z,13.57
2019-02-08T12:23:38.776Z,11.87
2019-02-08T12:26:09.264Z,9.27
2019-02-08T12:29:00.155Z,10.13
2019-02-08T12:32:51.538Z,10.47
2019-02-08T12:35:23.105Z,10.77
2019-02-08T12:37:53.509Z,7.93
2019-02-08T12:40:24.616Z,9.95
2019-02-08T12:42:54.901Z,8.60
2019-02-08T12:45:25.335Z,10.00
2019-02-08T12:47:55.578Z,7.70
2019-02-08T12:50:25.921Z,10.63
2019-02-08T12:52:56.203Z,7.27
2019-02-08T12:55:26.503Z,7.60
2019-02-08T12:57:56.714Z,8.43
2019-02-08T13:00:27.401Z,8.53
2019-02-08T13:02:57.632Z,11.97
2019-02-08T13:05:28.100Z,7.90
2019-02-08T13:07:58.350Z,7.53
2019-02-08T13:10:28.826Z,8.68
2019-02-08T13:13:03.757Z,8.38
2019-02-08T13:21:56.752Z,8.90
2019-02-08T13:24:28.774Z,8.17
2019-02-08T13:26:59.385Z,6.53
2019-02-08T13:29:30.816Z,7.33
2019-02-08T13:32:06.282Z,7.87
2019-02-08T13:34:39.413Z,9.45
2019-02-08T13:41:06.322Z,10.57
2019-02-08T13:43:46.593Z,7.50
2019-02-08T13:46:23.616Z,8.87
2019-02-08T13:48:58.556Z,8.60
2019-02-08T13:51:30.973Z,12.33
2019-02-08T13:54:02.893Z,10.93
2019-02-08T13:56:36.587Z,7.43
2019-02-08T13:59:09.117Z,9.30
2019-02-08T14:01:39.765Z,8.17
2019-02-08T14:04:11.774Z,9.60
2019-02-08T14:06:42.196Z,9.33
2019-02-08T14:09:12.972Z,10.63
2019-02-08T14:11:43.463Z,8.73
2019-02-08T14:14:13.924Z,9.43
2019-02-08T14:16:44.350Z,10.27
2019-02-08T14:19:15.515Z,9.23
2019-02-08T14:21:48.600Z,8.33
2019-02-08T14:24:32.951Z,8.80
2019-02-08T14:26:56.274Z,8.50
2019-02-08T14:29:26.507Z,11.20
2019-02-08T14:31:56.750Z,10.30
2019-02-08T14:34:27.020Z,8.80
2019-02-08T14:36:57.311Z,9.93
2019-02-08T14:39:27.690Z,9.23
2019-02-08T14:42:00.020Z,11.60
2019-02-08T14:44:30.795Z,8.47
2019-02-08T14:47:01.086Z,9.23
2019-02-08T14:49:31.306Z,8.60
2019-02-08T14:52:04.417Z,9.43
2019-02-08T14:54:34.941Z,8.47
2019-02-08T14:57:08.088Z,9.27
2019-02-08T14:59:38.395Z,7.63
2019-02-08T15:02:08.667Z,7.73
2019-02-08T15:04:39.024Z,8.50
2019-02-08T15:07:10.542Z,7.80
2019-02-08T15:09:40.822Z,6.87
2019-02-08T15:12:11.116Z,6.47
2019-02-08T15:14:41.452Z,10.17
2019-02-08T15:17:11.604Z,5.80
2019-02-08T15:19:41.936Z,7.50
2019-02-08T15:22:12.195Z,8.66
2019-02-08T15:24:42.525Z,6.50
2019-02-08T15:27:12.732Z,7.40
2019-02-08T15:29:43.014Z,8.47
2019-02-08T15:32:13.387Z,6.97
2019-02-08T15:34:44.411Z,8.50
2019-02-08T15:37:14.711Z,8.08
2019-02-08T15:39:44.958Z,7.67
2019-02-08T15:42:15.244Z,6.60
2019-02-08T15:44:45.459Z,6.43
2019-02-08T15:47:15.747Z,7.27
2019-02-08T15:49:46.036Z,6.83
2019-02-08T15:52:16.358Z,6.53
2019-02-08T15:54:46.781Z,5.17
2019-02-08T15:57:17.086Z,6.67
2019-02-08T15:59:47.243Z,9.07
2019-02-08T16:02:17.538Z,10.88
2019-02-08T16:04:47.755Z,6.27
2019-02-08T16:07:18.088Z,9.70
2019-02-08T16:09:48.337Z,7.47
2019-02-08T16:12:27.059Z,10.53
2019-02-08T16:14:57.533Z,7.58
2019-02-08T16:17:27.978Z,7.57
2019-02-08T16:19:58.516Z,10.47
2019-02-08T16:22:29.036Z,6.67
2019-02-08T16:25:01.339Z,8.90
2019-02-08T16:27:38.759Z,9.37
2019-02-08T16:30:04.711Z,7.95
2019-02-08T16:32:35.285Z,6.10
2019-02-08T16:35:07.218Z,10.80
2019-02-08T16:37:37.679Z,9.00
2019-02-08T16:40:14.138Z,9.43
2019-02-08T16:42:45.648Z,7.87
2019-02-08T16:45:23.571Z,8.20
2019-02-08T16:47:55.784Z,6.30
2019-02-08T16:50:27.938Z,5.97
2019-02-08T16:52:58.527Z,9.60
2019-02-08T16:55:30.487Z,6.63
2019-02-08T16:58:01.406Z,7.77
2019-02-08T17:00:34.574Z,8.23
2019-02-08T17:03:09.365Z,8.83
2019-02-08T17:05:41.315Z,10.57
2019-02-08T17:08:13.899Z,10.13
2019-02-08T17:10:44.234Z,10.20
2019-02-08T17:13:14.461Z,13.45
2019-02-08T17:15:44.911Z,9.00
2019-02-08T17:18:15.115Z,8.55
2019-02-08T17:20:47.275Z,9.77
2019-02-08T17:23:17.627Z,7.97
2019-02-08T17:25:50.542Z,8.07
2019-02-08T17:28:21.424Z,9.87
2019-02-08T17:30:51.803Z,11.03
2019-02-08T17:33:22.145Z,8.78
2019-02-08T17:35:52.639Z,7.73
2019-02-08T17:38:22.833Z,6.53
2019-02-08T17:40:53.248Z,9.57
2019-02-08T17:43:23.615Z,9.77
2019-02-08T17:45:54.342Z,7.42
2019-02-08T17:48:24.719Z,9.60
2019-02-08T17:50:55.010Z,8.77
2019-02-08T17:53:25.625Z,11.33
2019-02-08T17:55:55.959Z,8.28
2019-02-08T17:58:26.307Z,8.30
2019-02-08T18:00:58.359Z,6.87
2019-02-08T18:03:30.248Z,12.53
2019-02-08T18:06:00.631Z,9.30
2019-02-08T18:08:30.849Z,8.60
2019-02-08T18:11:01.019Z,8.57
2019-02-08T18:13:31.198Z,7.87
2019-02-08T18:16:01.473Z,10.13
2019-02-08T18:18:33.356Z,9.33
2019-02-08T18:21:08.199Z,6.90
2019-02-08T18:23:38.675Z,6.87
2019-02-08T18:26:09.307Z,6.97
2019-02-08T18:28:39.790Z,6.37
2019-02-08T18:31:10.340Z,9.93
2019-02-08T18:33:40.976Z,7.70
2019-02-08T18:36:11.490Z,10.13
2019-02-08T18:38:41.878Z,10.20
2019-02-08T18:41:12.314Z,10.47
2019-02-08T18:43:42.867Z,5.97
2019-02-08T18:46:13.405Z,11.53
2019-02-08T18:48:43.777Z,6.10
2019-02-08T18:51:13.935Z,6.70
2019-02-08T18:53:44.088Z,8.93
2019-02-08T18:56:14.437Z,13.93
2019-02-08T18:58:44.720Z,7.90
2019-02-08T19:01:14.944Z,7.30
2019-02-08T19:03:45.165Z,12.77
2019-02-08T19:06:15.404Z,10.77
2019-02-08T19:08:45.611Z,7.57
2019-02-08T19:11:15.866Z,6.20
2019-02-08T19:13:46.087Z,4.00
2019-02-08T19:16:16.930Z,7.58
2019-02-08T19:18:47.428Z,7.20
2019-02-08T19:21:18.049Z,9.63
2019-02-08T19:23:48.482Z,4.93
2019-02-08T19:26:19.010Z,4.70
2019-02-08T19:28:49.469Z,9.03
2019-02-08T19:31:20.170Z,3.80
2019-02-08T19:33:50.814Z,6.47
2019-02-08T19:36:21.267Z,5.57
2019-02-08T19:38:51.783Z,5.73
2019-02-08T19:41:22.286Z,5.97
2019-02-08T19:43:52.839Z,7.13
2019-02-08T19:46:26.861Z,7.03
2019-02-08T19:48:57.458Z,8.13
2019-02-08T19:51:27.995Z,5.37
2019-02-08T19:53:58.439Z,7.73
2019-02-08T19:56:28.956Z,4.83
2019-02-08T19:59:01.854Z,7.17
2019-02-08T20:01:32.290Z,7.80
2019-02-08T20:04:02.652Z,8.90
2019-02-08T20:06:33.116Z,5.87
2019-02-08T20:09:04.628Z,7.27
2019-02-08T20:11:35.138Z,7.10
2019-02-08T20:14:09.991Z,7.80
2019-02-08T20:16:40.370Z,8.00
2019-02-08T20:19:10.874Z,9.00
2019-02-08T20:21:41.331Z,7.67
2019-02-08T20:24:11.864Z,6.85
2019-02-08T20:26:42.335Z,7.63
2019-02-08T20:29:12.781Z,9.48
2019-02-08T20:31:43.285Z,7.25
2019-02-08T20:34:13.864Z,8.00
2019-02-08T20:36:44.505Z,8.73
2019-02-08T20:39:15.242Z,5.55
2019-02-08T20:41:45.856Z,10.17
2019-02-08T20:44:16.293Z,9.63
2019-02-08T20:46:46.783Z,7.57
2019-02-08T20:49:17.310Z,7.40
2019-02-08T20:51:47.602Z,8.80
2019-02-08T20:54:17.898Z,7.95
2019-02-08T20:56:48.200Z,7.80
2019-02-08T20:59:18.496Z,6.92
2019-02-08T21:01:48.714Z,11.57
2019-02-08T21:04:18.963Z,10.30
2019-02-08T21:06:49.212Z,8.03
2019-02-08T21:09:19.411Z,10.35
2019-02-08T21:11:50.117Z,7.43
2019-02-08T21:14:20.273Z,9.80
2019-02-08T21:16:53.136Z,9.43
2019-02-08T21:19:23.580Z,10.70
2019-02-08T21:21:54.093Z,13.47
2019-02-08T21:24:24.499Z,9.50
2019-02-08T21:26:54.973Z,9.33
2019-02-08T21:29:25.483Z,11.93
2019-02-08T21:31:56.112Z,11.00
2019-02-08T21:34:29.441Z,8.23
2019-02-08T21:36:59.918Z,11.33
2019-02-08T21:39:30.595Z,10.23
2019-02-08T21:42:01.077Z,10.83
2019-02-08T21:44:31.798Z,13.40
2019-02-08T21:47:02.500Z,7.70
2019-02-08T21:49:33.007Z,9.87
2019-02-08T21:52:03.582Z,11.03
2019-02-08T21:54:34.042Z,7.87
2019-02-08T21:57:04.655Z,7.63
2019-02-08T21:59:35.175Z,8.30
2019-02-08T22:02:06.883Z,7.50
2019-02-08T22:04:37.366Z,7.30
2019-02-08T22:07:07.950Z,7.77
2019-02-08T22:09:38.173Z,7.97
2019-02-08T22:12:08.457Z,11.67
2019-02-08T22:14:38.768Z,9.33
2019-02-08T22:17:09.083Z,7.47
2019-02-08T22:19:39.226Z,9.43
2019-02-08T22:22:10.043Z,10.53
2019-02-08T22:24:40.406Z,9.53
2019-02-08T22:27:10.569Z,10.57
2019-02-08T22:29:40.747Z,11.57
2019-02-08T22:32:10.956Z,8.60
2019-02-08T22:34:41.122Z,6.70
2019-02-08T22:37:11.376Z,7.72
2019-02-08T22:39:41.612Z,9.10
2019-02-08T22:42:11.868Z,7.20
2019-02-08T22:44:41.996Z,7.70
2019-02-08T22:47:12.209Z,11.18
2019-02-08T22:49:42.389Z,11.07
2019-02-08T22:52:12.593Z,10.50
2019-02-08T22:54:42.765Z,8.17
2019-02-08T22:57:12.923Z,7.70
2019-02-08T22:59:43.136Z,9.37
2019-02-08T23:02:13.922Z,8.13
2019-02-08T23:04:44.840Z,11.53
2019-02-08T23:07:15.112Z,11.07
2019-02-08T23:09:45.326Z,11.13
2019-02-08T23:12:15.648Z,11.63
2019-02-08T23:14:45.770Z,6.60
2019-02-08T23:17:16.086Z,8.35
2019-02-08T23:19:46.347Z,7.70
2019-02-08T23:22:16.658Z,8.53
2019-02-08T23:24:46.871Z,7.97
2019-02-08T23:27:17.214Z,8.65
2019-02-08T23:29:47.349Z,8.93
2019-02-08T23:32:17.546Z,8.50
2019-02-08T23:34:47.871Z,9.80
2019-02-08T23:37:25.728Z,8.67
2019-02-08T23:39:50.045Z,7.65
2019-02-08T23:42:20.295Z,10.43
2019-02-08T23:44:50.531Z,12.67
2019-02-08T23:47:20.774Z,6.97
2019-02-08T23:49:50.995Z,7.00
2019-02-08T23:52:21.275Z,5.67
2019-02-08T23:54:51.423Z,8.83
2019-02-08T23:57:21.645Z,8.08
2019-02-08T23:59:51.913Z,6.23
